Flight Track Log - Related Links

Times and Time Zones

All times are in EDT time to prevent confusion due to time zone crossing. See the TAM3871 flight status page for this flight to view local times or setup timezone preferences in your user account.

Time Position Orientation Groundspeed Altitude Reporting Facility
EDT Latitude Longitude Course Direction KTS MPH feet Rate Location/Type
Wed 01:38:00 PM -2.9768 -48.7407 189° South  Level Estimated
Wed 01:39:00 PM -3.0567 -48.7539 189° South  Level Estimated
Wed 01:40:00 PM -3.1366 -48.7671 189° South  Level Estimated
Wed 01:41:00 PM -3.2165 -48.7804 189° South  Level Estimated
Wed 01:42:00 PM -3.2963 -48.7936 189° South  Level Estimated
Wed 01:43:00 PM -3.3762 -48.8068 189° South  Level Estimated
Wed 01:44:00 PM -3.4561 -48.8201 189° South  Level Estimated
Wed 01:45:00 PM -3.5360 -48.8333 189° South  Level Estimated
Wed 01:46:00 PM -3.6159 -48.8466 189° South  Level Estimated
Wed 01:47:00 PM -3.6957 -48.8598 189° South  Level Estimated
Wed 01:48:00 PM -3.7756 -48.8731 189° South  Level Estimated
Wed 01:49:00 PM -3.8555 -48.8863 189° South  Level Estimated
Wed 01:50:00 PM -3.9354 -48.8996 189° South  Level Estimated
Wed 01:51:00 PM -4.0152 -48.9129 189° South  Level Estimated
Wed 01:52:00 PM -4.0951 -48.9261 189° South  Level Estimated
Wed 01:53:00 PM -4.1750 -48.9394 189° South  Level Estimated
Wed 01:54:00 PM -4.2548 -48.9527 189° South  Level Estimated
Wed 01:55:00 PM -4.3347 -48.9660 189° South  Level Estimated
Wed 01:56:00 PM -4.4146 -48.9792 189° South  Level Estimated
Wed 01:57:00 PM -4.4945 -48.9925 189° South  Level Estimated
Wed 01:58:00 PM -4.5743 -49.0058 189° South  Level Estimated
Wed 01:59:00 PM -4.6542 -49.0191 189° South  Level Estimated
Wed 02:00:00 PM -4.7341 -49.0324 189° South  Level Estimated
Wed 02:01:00 PM -4.8139 -49.0457 189° South  Level Estimated
Wed 02:02:00 PM -4.8938 -49.0589 189° South  Level Estimated
Wed 02:03:00 PM -4.9737 -49.0722 189° South  Level Estimated
Wed 02:04:00 PM -5.0535 -49.0855 189° South  Level Estimated
Wed 02:05:00 PM -5.1334 -49.0988 189° South  Level Estimated
Wed 02:06:00 PM -5.2133 -49.1121 189° South  Level Estimated
Wed 02:07:00 PM -5.2932 -49.1255 189° South  Level Estimated
Wed 02:08:00 PM -5.3686 -49.1380 189° South  Level Estimated
Wed 02:09:00 PM -5.3686 -49.1380 79° East  Level Estimated
Wed 02:10:00 PM -5.3686 -49.1380 79° East  Level Estimated
Wed 02:11:00 PM -5.3686 -49.1380 79° East  Level Estimated
Wed 02:12:00 PM -5.3686 -49.1380 79° East  Level Estimated
Wed 02:13:00 PM -5.3686 -49.1380 79° East  Level Estimated
Wed 02:14:00 PM -5.3686 -49.1380 79° East  Level Estimated
Wed 02:15:00 PM -5.3686 -49.1380 79° East  Level Estimated
Wed 02:16:00 PM -5.3686 -49.1380 79° East  Level Estimated
Wed 02:17:00 PM -5.3686 -49.1380 79° East  Level Estimated
Wed 02:18:00 PM -5.3686 -49.1380 79° East  Level Estimated
Wed 02:19:00 PM -5.3686 -49.1380 79° East  Level Estimated
Wed 02:20:00 PM -5.3686 -49.1380 79° East  Level Estimated
Wed 02:21:00 PM -5.3686 -49.1380 79° East  Level Estimated
Wed 02:22:00 PM -5.3686 -49.1380 79° East  Level Estimated

Login

Don't have an account? Register now (free) for customized features, flight alerts, and more!